KDED

Deland Municipal-Sidney H Taylor Field Airport

Deland, Florida, USA
METAR KDED 240155Z AUTO 12006KT 10SM SCT090 24/21 A3009 RMK AO2
Observed Flight Rules
May-24 @ 01:55 UTC (13 minutes ago) Visual Flight Rules
Wind Visibility Clouds
120° at 6 knots 10 miles
  • Scattered at 9,000' AGL
Temperatures Readings
Current 24°C / 75°F
Dewpoint 21°C / 70°F
Humidity 83%
Altimeter 30.09" Hg
Pressure 1019 hPa
Elevation 24
METAR KDED 240155Z AUTO 12006KT 10SM SCT090 24/21 A3009 RMK AO2
Observed Flight Rules
May-24 @ 01:55 UTC
(13 minutes ago)
VFR
Wind Visibility
120° at 6 knots 10 miles
Clouds
  • Scattered at 9,000' AGL
Temperature Dewpoint
24°C / 75°F 21°C / 70°F
Humidity Altimeter Pressure
83% 30.09" Hg 1019 hPa